Time;durP1;ratioP1;P1;durP2;ratioP2;P2;SDS_P1;SDS_P2;PMS_P1;PMS_P2;Temp;Humidity;BMP_temperature;BMP_pressure;BME280_temperature;BME280_humidity;BME280_pressure;Samples;Min_cycle;Max_cycle;Signal;HPM_P1;HPM_P2
2022/05/31 00:00:02;;;;;;;2.93;2.00;;;11.80;95.00;;;;;;10472189;28;20220;-72
2022/05/31 00:05:04;;;;;;;2.37;1.83;;;11.70;95.80;;;;;;10474413;28;20249;-72
2022/05/31 00:10:06;;;;;;;5.20;2.20;;;11.60;96.80;;;;;;10473690;28;20216;-73
2022/05/31 00:15:10;;;;;;;2.70;1.83;;;11.50;97.90;;;;;;10479476;28;20235;-71
2022/05/31 00:20:13;;;;;;;3.40;2.00;;;11.50;99.00;;;;;;10463627;28;20644;-72
2022/05/31 00:25:36;;;;;;;3.47;1.87;;;11.40;99.90;;;;;;10480140;28;20243;-72
2022/05/31 00:31:25;;;;;;;4.17;1.70;;;11.40;99.90;;;;;;10468942;28;20233;-71
2022/05/31 00:36:26;;;;;;;3.07;2.20;;;11.30;99.90;;;;;;10465389;28;20296;-71
2022/05/31 00:41:27;;;;;;;3.60;2.00;;;11.20;99.90;;;;;;10477624;28;20212;-71
2022/05/31 00:46:41;;;;;;;3.83;2.10;;;11.10;99.90;;;;;;10470532;28;20231;-71
2022/05/31 00:51:50;;;;;;;3.83;1.70;;;11.10;99.90;;;;;;10476885;28;20238;-72
2022/05/31 00:56:54;;;;;;;4.20;2.10;;;11.00;99.90;;;;;;10488357;28;20243;-73
2022/05/31 01:01:56;;;;;;;3.63;2.07;;;10.90;99.90;;;;;;10473060;28;20247;-73
2022/05/31 01:06:58;;;;;;;2.33;2.00;;;10.80;99.90;;;;;;10469993;28;20272;-71
2022/05/31 01:12:00;;;;;;;4.83;2.07;;;10.70;99.90;;;;;;10477074;28;20219;-71
2022/05/31 01:17:06;;;;;;;2.93;2.20;;;10.70;99.90;;;;;;10477438;28;20219;-72
2022/05/31 01:22:07;;;;;;;3.00;2.30;;;10.60;99.90;;;;;;10469622;28;20231;-71
2022/05/31 01:27:16;;;;;;;2.30;2.10;;;10.60;99.90;;;;;;10468920;28;20762;-72
2022/05/31 01:32:17;;;;;;;2.93;2.10;;;10.60;99.90;;;;;;10462783;28;20228;-72
2022/05/31 01:37:19;;;;;;;3.17;2.40;;;10.50;99.90;;;;;;10475794;28;20252;-71
2022/05/31 01:42:24;;;;;;;3.33;2.40;;;10.30;99.90;;;;;;10475127;28;20887;-71
2022/05/31 01:47:25;;;;;;;4.53;2.03;;;10.20;99.90;;;;;;10469706;28;20224;-71
2022/05/31 01:52:26;;;;;;;4.30;2.23;;;10.20;99.90;;;;;;10474666;28;20227;-71
2022/05/31 01:57:30;;;;;;;5.23;2.13;;;10.30;99.90;;;;;;10474120;28;20542;-70
2022/05/31 02:02:31;;;;;;;4.07;2.13;;;10.30;99.90;;;;;;10487825;28;20228;-71
2022/05/31 02:07:32;;;;;;;3.40;2.40;;;10.40;99.90;;;;;;10475016;28;20220;-71
2022/05/31 02:12:33;;;;;;;3.43;2.10;;;10.50;99.90;;;;;;10462082;28;20435;-72
2022/05/31 02:17:34;;;;;;;4.30;2.37;;;10.40;99.90;;;;;;10485727;28;20758;-71
2022/05/31 02:22:36;;;;;;;2.87;2.23;;;10.50;99.90;;;;;;10475329;28;20236;-71
2022/05/31 02:27:46;;;;;;;2.87;2.03;;;10.40;99.90;;;;;;10470726;28;20226;-72
2022/05/31 02:32:47;;;;;;;5.10;2.70;;;10.40;99.90;;;;;;10470204;28;20683;-71
2022/05/31 02:37:48;;;;;;;3.10;2.50;;;10.40;99.90;;;;;;10466604;28;20549;-71
2022/05/31 02:42:49;;;;;;;7.83;3.03;;;10.30;99.90;;;;;;10473237;28;20330;-71
2022/05/31 02:47:49;;;;;;;6.20;3.37;;;10.30;99.90;;;;;;10468378;28;20594;-71
2022/05/31 02:52:50;;;;;;;4.07;2.90;;;10.40;99.90;;;;;;10469365;28;20254;-71
2022/05/31 02:57:51;;;;;;;4.60;2.90;;;10.40;99.90;;;;;;10463118;28;20223;-72
2022/05/31 03:02:52;;;;;;;4.70;3.10;;;10.40;99.90;;;;;;10467577;28;20215;-71
2022/05/31 03:07:53;;;;;;;5.83;2.33;;;10.30;99.90;;;;;;10466787;28;20231;-70
2022/05/31 03:12:55;;;;;;;3.43;2.17;;;10.30;99.90;;;;;;10471711;28;20306;-72
2022/05/31 03:18:04;;;;;;;2.83;2.50;;;10.20;99.90;;;;;;10473057;28;20223;-72
2022/05/31 03:23:18;;;;;;;5.00;2.47;;;10.20;99.90;;;;;;10474389;28;20705;-72
2022/05/31 03:28:20;;;;;;;2.70;2.27;;;10.10;99.90;;;;;;10453552;28;20668;-71
2022/05/31 03:33:20;;;;;;;3.23;2.20;;;10.10;99.90;;;;;;10473348;28;20699;-71
2022/05/31 03:38:21;;;;;;;3.03;2.53;;;10.00;99.90;;;;;;10473442;28;20223;-71
2022/05/31 03:43:28;;;;;;;2.87;2.53;;;10.00;99.90;;;;;;10477567;28;20252;-72
2022/05/31 03:48:30;;;;;;;5.70;2.63;;;10.00;99.90;;;;;;10481744;28;20263;-71
2022/05/31 03:53:31;;;;;;;4.37;2.67;;;10.00;99.90;;;;;;10475186;28;20288;-72
2022/05/31 03:58:33;;;;;;;4.20;2.83;;;10.00;99.90;;;;;;10480123;28;20230;-72
2022/05/31 04:03:36;;;;;;;5.40;3.10;;;10.00;99.90;;;;;;10471434;28;20266;-72
2022/05/31 04:08:37;;;;;;;4.47;3.00;;;10.00;99.90;;;;;;10476350;28;20219;-70
2022/05/31 04:13:38;;;;;;;4.27;2.70;;;10.10;99.90;;;;;;10476082;28;20230;-71
2022/05/31 04:18:40;;;;;;;4.03;2.77;;;10.10;99.90;;;;;;10470907;28;20296;-70
2022/05/31 04:23:58;;;;;;;6.80;2.63;;;10.20;99.90;;;;;;10476892;28;20223;-70
2022/05/31 04:28:59;;;;;;;3.67;2.70;;;10.30;99.90;;;;;;10463008;28;20355;-70
2022/05/31 04:34:00;;;;;;;8.13;3.10;;;10.40;99.90;;;;;;10477769;28;20219;-69
2022/05/31 04:39:01;;;;;;;6.53;3.40;;;10.60;99.90;;;;;;10471920;28;20234;-70
2022/05/31 04:44:04;;;;;;;7.00;3.87;;;11.10;99.90;;;;;;10470624;28;20215;-68
2022/05/31 04:49:05;;;;;;;7.77;4.67;;;11.70;99.90;;;;;;10468415;28;20736;-69
2022/05/31 04:54:05;;;;;;;10.60;6.27;;;11.50;99.90;;;;;;10485444;28;20234;-69
2022/05/31 04:59:06;;;;;;;5.77;3.53;;;11.70;99.90;;;;;;10471452;28;20993;-69
2022/05/31 05:04:06;;;;;;;7.00;3.20;;;13.20;99.90;;;;;;10471150;28;20299;-70
2022/05/31 05:09:07;;;;;;;6.03;3.17;;;14.40;99.90;;;;;;10478526;28;20223;-70
2022/05/31 05:14:08;;;;;;;9.50;3.60;;;14.60;99.90;;;;;;10469774;28;20219;-69
2022/05/31 05:19:08;;;;;;;5.73;2.80;;;15.10;99.90;;;;;;10478501;28;20221;-70
2022/05/31 05:24:09;;;;;;;7.43;3.20;;;16.10;99.90;;;;;;10461660;28;20328;-70
2022/05/31 05:34:28;;;;;;;7.03;3.00;;;16.90;95.80;;;;;;10473343;28;20230;-70
2022/05/31 05:39:29;;;;;;;8.97;3.10;;;17.20;94.80;;;;;;10471777;28;20214;-70
2022/05/31 05:44:29;;;;;;;5.90;2.47;;;16.60;94.10;;;;;;10468268;28;20302;-71
2022/05/31 05:49:30;;;;;;;7.77;3.20;;;15.50;96.90;;;;;;10472375;28;20231;-70
2022/05/31 05:54:31;;;;;;;6.53;3.23;;;14.60;98.90;;;;;;10472469;28;20219;-70
2022/05/31 05:59:31;;;;;;;9.67;3.80;;;14.70;99.90;;;;;;10492316;28;20212;-72
2022/05/31 06:04:37;;;;;;;5.83;2.80;;;17.00;96.30;;;;;;10474194;28;20337;-70
2022/05/31 06:09:40;;;;;;;7.27;2.83;;;19.40;88.70;;;;;;10476437;28;20226;-70
2022/05/31 06:14:50;;;;;;;6.20;2.80;;;18.70;84.90;;;;;;10459148;28;20275;-69
2022/05/31 06:19:51;;;;;;;3.37;2.40;;;17.30;90.50;;;;;;10455567;28;20214;-71
2022/05/31 06:24:57;;;;;;;5.63;2.40;;;17.80;90.20;;;;;;10458430;28;20220;-70
2022/05/31 06:29:59;;;;;;;5.67;2.20;;;17.60;90.20;;;;;;10462902;28;20576;-70
2022/05/31 06:35:00;;;;;;;4.27;1.50;;;18.20;90.20;;;;;;10463924;28;20322;-70
2022/05/31 06:40:00;;;;;;;2.80;1.50;;;19.00;84.50;;;;;;10459879;28;20309;-71
2022/05/31 06:45:01;;;;;;;4.13;1.83;;;19.20;81.90;;;;;;10453878;28;20215;-70
2022/05/31 06:50:02;;;;;;;8.73;1.67;;;19.10;81.70;;;;;;10461576;28;20659;-70
2022/05/31 07:00:23;;;;;;;5.60;1.70;;;18.00;86.20;;;;;;10458979;28;20681;-70
2022/05/31 07:05:24;;;;;;;3.63;1.60;;;20.30;79.20;;;;;;10462359;28;20223;-70
2022/05/31 07:10:26;;;;;;;1.73;1.37;;;20.20;74.40;;;;;;10474665;28;20270;-69
2022/05/31 07:15:27;;;;;;;1.53;1.43;;;21.10;70.10;;;;;;10463560;28;20239;-70
2022/05/31 07:20:28;;;;;;;6.40;1.50;;;21.50;66.90;;;;;;10472515;28;20216;-70
2022/05/31 07:25:29;;;;;;;3.83;1.37;;;22.20;64.20;;;;;;10459955;28;20223;-71
2022/05/31 07:30:29;;;;;;;2.10;1.60;;;21.90;64.30;;;;;;10466380;28;20930;-70
2022/05/31 07:35:30;;;;;;;2.73;1.57;;;20.90;67.70;;;;;;10467575;28;20323;-70
2022/05/31 07:40:30;;;;;;;2.47;1.63;;;20.30;68.80;;;;;;10457419;28;20687;-71
2022/05/31 07:45:31;;;;;;;1.90;1.60;;;20.10;71.90;;;;;;10460563;28;20289;-71
2022/05/31 07:50:32;;;;;;;2.53;1.23;;;21.90;66.80;;;;;;10463407;28;20304;-69
2022/05/31 07:55:32;;;;;;;3.33;1.70;;;23.60;59.00;;;;;;10457754;28;20728;-70
2022/05/31 08:00:33;;;;;;;2.67;1.57;;;23.70;58.30;;;;;;10470991;28;20246;-70
2022/05/31 08:05:39;;;;;;;3.77;1.60;;;23.40;56.90;;;;;;10464078;28;20219;-71
2022/05/31 08:10:40;;;;;;;4.40;1.67;;;21.80;60.50;;;;;;10470197;28;20236;-71
2022/05/31 08:15:41;;;;;;;2.30;1.40;;;22.40;59.40;;;;;;10452326;28;20231;-71
2022/05/31 08:20:41;;;;;;;2.70;1.60;;;22.50;61.30;;;;;;10470839;28;20223;-71
2022/05/31 08:25:42;;;;;;;5.20;1.70;;;24.30;54.90;;;;;;10465644;28;20358;-71
2022/05/31 08:30:42;;;;;;;4.33;1.70;;;24.60;55.60;;;;;;10463003;28;20220;-71
2022/05/31 08:35:43;;;;;;;5.80;1.93;;;26.20;51.50;;;;;;10473276;28;20232;-71
2022/05/31 08:41:18;;;;;;;3.33;1.97;;;25.80;52.50;;;;;;10458948;28;20632;-71
2022/05/31 08:46:31;;;;;;;2.50;1.60;;;26.90;49.60;;;;;;10458358;28;20223;-70
2022/05/31 08:51:55;;;;;;;3.03;1.53;;;26.50;48.80;;;;;;10487079;28;20592;-69
2022/05/31 08:57:01;;;;;;;2.90;1.60;;;27.60;46.90;;;;;;10473325;28;20220;-69
2022/05/31 09:02:27;;;;;;;1.83;1.30;;;28.50;43.80;;;;;;10464672;28;21066;-69
2022/05/31 09:07:35;;;;;;;3.77;1.80;;;28.80;44.50;;;;;;10472381;28;20284;-69
2022/05/31 09:13:10;;;;;;;4.87;2.00;;;28.40;44.50;;;;;;10456745;28;20427;-70
2022/05/31 09:18:33;;;;;;;4.60;1.60;;;27.80;44.50;;;;;;10463765;28;20220;-71
2022/05/31 09:23:40;;;;;;;4.50;1.67;;;30.20;41.70;;;;;;10461032;28;20232;-70
2022/05/31 09:28:51;;;;;;;2.83;1.70;;;31.00;40.30;;;;;;10471462;28;20326;-70
2022/05/31 09:34:27;;;;;;;2.23;1.40;;;31.10;38.90;;;;;;10461074;28;20238;-70
2022/05/31 09:39:43;;;;;;;3.47;1.70;;;34.00;36.20;;;;;;10472643;28;20220;-71
2022/05/31 09:44:52;;;;;;;1.50;1.10;;;35.20;32.00;;;;;;10476754;28;20237;-69
2022/05/31 09:49:54;;;;;;;2.73;1.27;;;34.10;33.20;;;;;;10465003;28;20219;-71
2022/05/31 10:01:02;;;;;;;3.63;1.50;;;32.40;33.80;;;;;;10399525;28;20219;-70
2022/05/31 10:06:10;;;;;;;3.63;1.53;;;31.40;35.80;;;;;;10451939;28;20231;-70
2022/05/31 10:11:21;;;;;;;3.67;1.17;;;33.00;33.00;;;;;;10459989;28;20255;-71
2022/05/31 10:16:28;;;;;;;3.73;1.30;;;34.80;31.10;;;;;;10455588;28;20230;-70
2022/05/31 10:21:42;;;;;;;3.27;1.90;;;36.50;29.80;;;;;;10459205;28;20255;-70
2022/05/31 10:26:45;;;;;;;8.40;1.60;;;38.10;28.00;;;;;;10465528;28;20222;-70
2022/05/31 10:31:51;;;;;;;4.00;1.70;;;39.00;26.80;;;;;;10456270;28;20212;-70
2022/05/31 10:36:56;;;;;;;2.47;1.30;;;38.90;26.40;;;;;;10453484;28;20219;-69
2022/05/31 10:42:00;;;;;;;1.70;1.53;;;39.10;26.70;;;;;;10465326;28;20220;-73
2022/05/31 10:47:40;;;;;;;3.97;1.60;;;38.80;26.20;;;;;;10462266;28;20265;-71
2022/05/31 10:53:05;;;;;;;3.33;1.50;;;39.00;26.00;;;;;;10468519;28;20222;-70
2022/05/31 10:58:15;;;;;;;2.30;1.73;;;38.80;25.90;;;;;;10450612;28;20298;-71
2022/05/31 11:03:41;;;;;;;2.37;1.43;;;39.10;25.20;;;;;;10456717;28;20279;-70
2022/05/31 11:14:51;;;;;;;9.67;2.40;;;38.40;24.70;;;;;;10440869;28;20224;-71
2022/05/31 11:20:05;;;;;;;2.83;1.40;;;37.90;25.30;;;;;;10465531;28;20211;-70
2022/05/31 11:25:31;;;;;;;4.30;2.13;;;38.40;25.50;;;;;;10467383;28;20235;-70
2022/05/31 11:30:36;;;;;;;11.00;1.63;;;38.60;25.20;;;;;;10466340;28;20223;-70
2022/05/31 11:36:08;;;;;;;7.80;1.50;;;38.50;25.50;;;;;;10463991;28;20219;-70
2022/05/31 11:41:37;;;;;;;3.20;1.20;;;36.20;26.20;;;;;;10471380;28;20212;-71
2022/05/31 11:46:51;;;;;;;3.93;1.83;;;32.60;29.10;;;;;;10451002;28;20227;-70
2022/05/31 11:52:28;;;;;;;3.07;1.53;;;29.90;31.80;;;;;;10477875;28;20258;-72
2022/05/31 11:57:47;;;;;;;5.80;1.60;;;28.00;32.40;;;;;;10463098;28;20765;-72
2022/05/31 12:02:59;;;;;;;5.90;1.40;;;26.90;34.80;;;;;;10471340;28;20226;-71
2022/05/31 12:08:08;;;;;;;5.67;1.43;;;26.40;35.30;;;;;;10467646;28;20220;-70
2022/05/31 12:13:11;;;;;;;2.97;1.50;;;26.20;35.80;;;;;;10476658;28;20217;-71
2022/05/31 12:18:37;;;;;;;2.70;1.30;;;26.10;36.40;;;;;;10463857;28;20220;-71
2022/05/31 12:23:57;;;;;;;2.47;0.97;;;25.90;36.20;;;;;;10466312;28;20223;-70
2022/05/31 12:29:22;;;;;;;2.27;1.37;;;25.50;32.00;;;;;;10475172;28;20219;-71
2022/05/31 12:34:22;;;;;;;1.60;1.20;;;25.20;34.20;;;;;;10450065;28;20212;-71
2022/05/31 12:39:30;;;;;;;1.80;1.40;;;25.00;33.40;;;;;;10468222;28;20208;-72
2022/05/31 12:44:34;;;;;;;1.30;0.93;;;24.70;34.20;;;;;;10475669;28;20223;-72
2022/05/31 12:49:37;;;;;;;4.13;1.50;;;24.90;35.80;;;;;;10482323;28;20238;-72
2022/05/31 12:54:46;;;;;;;4.93;1.20;;;25.20;36.30;;;;;;10473035;28;20213;-71
2022/05/31 12:59:50;;;;;;;3.83;1.50;;;25.40;36.10;;;;;;10467301;28;20315;-71
2022/05/31 13:04:55;;;;;;;1.37;1.00;;;25.60;35.90;;;;;;10469818;28;20226;-71
2022/05/31 13:10:28;;;;;;;3.67;1.30;;;25.90;36.10;;;;;;10470051;28;20228;-72
2022/05/31 13:20:56;;;;;;;3.90;1.70;;;25.60;36.80;;;;;;10481133;28;20307;-71
2022/05/31 13:26:06;;;;;;;3.47;1.30;;;25.70;36.00;;;;;;10476783;28;20670;-71
2022/05/31 13:31:13;;;;;;;4.97;1.43;;;25.60;36.20;;;;;;10477641;28;20217;-72
2022/05/31 13:36:17;;;;;;;4.37;1.37;;;25.30;37.30;;;;;;10473377;28;20227;-72
2022/05/31 13:41:22;;;;;;;4.07;1.30;;;25.10;37.60;;;;;;10477443;28;20224;-72
2022/05/31 13:46:30;;;;;;;1.97;1.10;;;25.60;37.40;;;;;;10474375;28;20238;-71
2022/05/31 13:51:32;;;;;;;4.20;1.43;;;25.90;36.30;;;;;;10467921;28;20235;-71
2022/05/31 13:56:34;;;;;;;5.30;1.30;;;25.90;36.20;;;;;;10471429;28;20281;-72
2022/05/31 14:02:12;;;;;;;1.90;1.30;;;25.70;36.60;;;;;;10462785;28;20295;-72
2022/05/31 14:07:20;;;;;;;5.13;1.63;;;25.60;36.10;;;;;;10457740;28;20712;-74
2022/05/31 14:12:26;;;;;;;3.10;1.67;;;25.10;37.10;;;;;;10474558;28;20234;-74
2022/05/31 14:17:42;;;;;;;3.07;1.40;;;24.80;37.80;;;;;;10466928;28;20235;-74
2022/05/31 14:22:44;;;;;;;3.97;1.60;;;25.20;37.50;;;;;;10460856;28;20339;-74
2022/05/31 14:27:53;;;;;;;3.40;1.33;;;25.40;36.60;;;;;;10451305;28;20242;-70
2022/05/31 14:33:02;;;;;;;2.23;1.33;;;25.40;36.90;;;;;;10463245;28;20329;-72
2022/05/31 14:38:06;;;;;;;2.23;1.30;;;25.20;36.90;;;;;;10472849;28;20225;-72
2022/05/31 14:43:25;;;;;;;2.33;1.43;;;25.00;37.40;;;;;;10461218;28;20219;-71
2022/05/31 14:48:40;;;;;;;3.07;1.60;;;25.00;37.80;;;;;;10455675;28;20258;-72
2022/05/31 14:53:43;;;;;;;7.37;1.33;;;25.00;37.70;;;;;;10457329;28;20219;-73
2022/05/31 14:58:45;;;;;;;18.63;1.80;;;25.00;37.20;;;;;;10454318;28;20220;-72
2022/05/31 15:04:04;;;;;;;4.20;1.20;;;25.20;36.50;;;;;;10459539;28;20314;-70
2022/05/31 15:09:14;;;;;;;18.63;1.70;;;25.30;36.20;;;;;;10464267;28;20222;-71
2022/05/31 15:19:37;;;;;;;1.23;0.90;;;25.20;36.10;;;;;;10469295;28;20225;-71
2022/05/31 15:24:51;;;;;;;2.17;0.90;;;25.20;37.20;;;;;;10470394;28;20761;-71
2022/05/31 15:29:54;;;;;;;2.10;1.20;;;25.20;36.60;;;;;;10471311;28;20314;-71
2022/05/31 15:34:54;;;;;;;2.07;1.40;;;25.00;36.40;;;;;;10472462;28;20305;-71
2022/05/31 15:39:57;;;;;;;2.50;1.30;;;25.00;37.30;;;;;;10475170;28;20732;-71
2022/05/31 15:44:57;;;;;;;1.80;1.10;;;25.10;37.00;;;;;;10468525;28;20729;-71
2022/05/31 15:49:58;;;;;;;1.80;1.30;;;24.90;37.70;;;;;;10470812;28;20219;-72
2022/05/31 15:55:02;;;;;;;4.57;1.40;;;24.80;38.00;;;;;;10470161;28;20227;-72
2022/05/31 16:00:07;;;;;;;2.20;1.37;;;24.40;38.70;;;;;;10475583;28;20289;-70
2022/05/31 16:05:09;;;;;;;5.70;1.73;;;24.20;39.30;;;;;;10465294;28;20255;-70
2022/05/31 16:10:19;;;;;;;3.47;1.70;;;24.20;39.90;;;;;;10479443;28;20219;-71
2022/05/31 16:15:21;;;;;;;4.20;1.60;;;23.80;40.00;;;;;;10462811;28;20211;-71
2022/05/31 16:20:22;;;;;;;4.80;1.30;;;23.50;41.10;;;;;;10472483;28;20191;-72
2022/05/31 16:25:26;;;;;;;4.87;1.37;;;23.40;41.60;;;;;;10475999;28;20804;-72
2022/05/31 16:30:46;;;;;;;1.30;1.20;;;23.20;42.00;;;;;;10460651;28;20289;-72
2022/05/31 16:35:49;;;;;;;3.50;1.20;;;23.10;42.20;;;;;;10450770;28;20785;-71
2022/05/31 16:46:11;;;;;;;2.60;1.40;;;22.70;47.10;;;;;;10473556;28;20220;-71
2022/05/31 16:51:22;;;;;;;5.03;1.60;;;22.40;48.30;;;;;;10462975;28;20251;-72
2022/05/31 16:56:23;;;;;;;3.17;1.83;;;22.20;47.70;;;;;;10463113;28;20216;-72
2022/05/31 17:01:24;;;;;;;4.47;1.37;;;22.10;48.50;;;;;;10468634;28;20247;-71
2022/05/31 17:17:04;;;;;;;2.80;1.27;;;21.50;49.90;;;;;;10460116;28;20216;-71
2022/05/31 17:22:06;;;;;;;2.50;1.97;;;21.30;50.70;;;;;;10466717;28;20254;-73
2022/05/31 17:27:07;;;;;;;2.63;1.40;;;21.20;50.60;;;;;;10465213;28;20224;-73
2022/05/31 17:32:08;;;;;;;3.50;1.70;;;21.20;51.00;;;;;;10461658;28;20220;-72
2022/05/31 17:37:08;;;;;;;1.83;1.20;;;21.40;50.70;;;;;;10462931;28;20215;-72
2022/05/31 17:42:09;;;;;;;1.63;1.30;;;21.60;50.00;;;;;;10456208;28;20227;-73
2022/05/31 17:47:11;;;;;;;2.00;1.50;;;21.60;49.80;;;;;;10449993;28;20227;-71
2022/05/31 17:52:11;;;;;;;1.90;1.40;;;21.80;49.50;;;;;;10458370;28;20234;-71
2022/05/31 17:57:13;;;;;;;2.73;1.60;;;21.90;48.90;;;;;;10458201;28;20228;-71
2022/05/31 18:02:14;;;;;;;3.37;1.60;;;21.60;49.20;;;;;;10456402;28;20285;-72
2022/05/31 18:07:14;;;;;;;6.77;1.73;;;21.30;50.30;;;;;;10450507;28;20259;-71
2022/05/31 18:12:16;;;;;;;1.70;1.30;;;21.20;50.80;;;;;;10464175;28;20220;-71
2022/05/31 18:17:16;;;;;;;5.97;1.60;;;21.10;51.30;;;;;;10465766;28;20266;-69
2022/05/31 18:22:20;;;;;;;1.30;1.10;;;20.90;51.50;;;;;;10460864;28;20637;-71
2022/05/31 18:27:21;;;;;;;2.83;1.20;;;20.70;51.80;;;;;;10451242;28;20294;-72
2022/05/31 18:32:25;;;;;;;2.13;1.30;;;20.50;52.20;;;;;;10454909;28;20594;-71
2022/05/31 18:42:45;;;;;;;3.67;1.40;;;20.40;52.60;;;;;;10472376;28;20261;-71
2022/05/31 18:47:46;;;;;;;3.30;1.27;;;20.20;53.00;;;;;;10471014;28;20220;-70
2022/05/31 18:52:47;;;;;;;1.67;1.20;;;20.10;53.30;;;;;;10462832;28;20220;-71
2022/05/31 18:57:57;;;;;;;1.07;1.03;;;20.10;53.30;;;;;;10475663;28;20215;-71
2022/05/31 19:02:57;;;;;;;4.70;1.27;;;20.00;53.50;;;;;;10474402;28;20215;-70
2022/05/31 19:07:59;;;;;;;4.03;1.30;;;20.00;54.00;;;;;;10466241;28;20219;-72
2022/05/31 19:13:07;;;;;;;2.17;1.60;;;19.90;54.20;;;;;;10479539;28;20241;-72
2022/05/31 19:18:11;;;;;;;2.83;1.30;;;19.70;54.60;;;;;;10475508;28;20272;-71
2022/05/31 19:23:15;;;;;;;1.93;1.30;;;19.60;55.10;;;;;;10477053;28;20222;-72
2022/05/31 19:28:15;;;;;;;3.63;1.60;;;19.40;55.30;;;;;;10480419;28;20295;-71
2022/05/31 19:33:34;;;;;;;2.03;1.70;;;19.20;56.00;;;;;;10503036;28;20253;-73
2022/05/31 19:38:39;;;;;;;2.20;1.50;;;18.90;56.80;;;;;;10472594;28;20225;-71
2022/05/31 19:43:40;;;;;;;1.97;1.33;;;18.70;57.60;;;;;;10482512;28;20329;-72
2022/05/31 19:48:41;;;;;;;4.80;2.70;;;18.40;58.20;;;;;;10473181;28;20227;-72
2022/05/31 19:53:46;;;;;;;3.73;1.90;;;18.20;59.00;;;;;;10470436;28;20225;-71
2022/05/31 19:58:46;;;;;;;2.50;1.93;;;18.10;59.70;;;;;;10475398;28;20223;-72
2022/05/31 20:03:47;;;;;;;3.53;2.23;;;17.90;60.20;;;;;;10469766;28;20234;-72
2022/05/31 20:14:07;;;;;;;2.43;1.93;;;17.50;63.10;;;;;;10479549;28;20218;-72
2022/05/31 20:24:16;;;;;;;2.77;2.10;;;17.30;63.40;;;;;;10449593;28;20228;-71
2022/05/31 20:29:18;;;;;;;2.07;1.87;;;17.20;63.60;;;;;;10482415;28;20214;-70
2022/05/31 20:34:19;;;;;;;1.70;1.60;;;17.10;64.00;;;;;;10463896;28;20283;-71
2022/05/31 20:39:23;;;;;;;2.07;1.73;;;17.00;65.20;;;;;;10464309;28;20212;-71
2022/05/31 20:44:24;;;;;;;3.30;1.77;;;17.00;65.70;;;;;;10471630;28;20265;-73
2022/05/31 20:49:26;;;;;;;2.23;1.73;;;16.90;66.50;;;;;;10471940;28;20231;-72
2022/05/31 20:54:30;;;;;;;2.50;1.70;;;16.80;67.30;;;;;;10471501;28;20226;-72
2022/05/31 20:59:30;;;;;;;5.03;1.93;;;16.70;68.60;;;;;;10473364;28;20266;-71
2022/05/31 21:04:31;;;;;;;4.23;1.87;;;16.70;69.30;;;;;;10464849;28;20243;-72
2022/05/31 21:09:33;;;;;;;2.03;1.70;;;16.60;69.90;;;;;;10464408;28;20210;-72
2022/05/31 21:14:35;;;;;;;3.17;1.73;;;16.60;70.40;;;;;;10471154;28;20674;-71
2022/05/31 21:19:36;;;;;;;3.77;1.77;;;16.50;71.10;;;;;;10467136;28;20338;-71
2022/05/31 21:24:45;;;;;;;3.90;1.70;;;16.40;71.60;;;;;;10467444;28;20262;-72
2022/05/31 21:29:50;;;;;;;1.80;1.70;;;16.30;72.60;;;;;;10468424;28;20236;-70
2022/05/31 21:34:52;;;;;;;1.77;1.67;;;16.10;73.80;;;;;;10487657;28;20246;-71
2022/05/31 21:45:14;;;;;;;5.43;1.50;;;15.90;75.10;;;;;;10459094;28;20295;-72
2022/05/31 21:50:14;;;;;;;2.90;2.00;;;15.90;76.10;;;;;;10483895;28;20198;-70
2022/05/31 21:55:21;;;;;;;1.80;1.70;;;15.90;76.40;;;;;;10465071;28;20203;-71
2022/05/31 22:00:48;;;;;;;2.70;2.23;;;15.80;77.40;;;;;;10468905;28;20183;-71
2022/05/31 22:05:51;;;;;;;2.93;2.30;;;15.60;78.70;;;;;;10467256;28;20220;-73
2022/05/31 22:10:51;;;;;;;3.93;2.70;;;15.40;80.10;;;;;;10468259;28;20221;-71
2022/05/31 22:15:53;;;;;;;4.23;2.63;;;15.30;81.20;;;;;;10464971;28;20681;-71
2022/05/31 22:20:54;;;;;;;3.87;2.27;;;15.20;82.90;;;;;;10468515;28;20308;-71
2022/05/31 22:25:57;;;;;;;2.10;1.90;;;15.10;84.20;;;;;;10451845;28;20227;-71
2022/05/31 22:30:58;;;;;;;3.77;2.17;;;15.00;84.90;;;;;;10467446;28;20227;-71
2022/05/31 22:36:02;;;;;;;2.97;1.77;;;15.10;86.20;;;;;;10465879;28;20351;-71
2022/05/31 22:41:04;;;;;;;1.97;1.83;;;15.20;85.40;;;;;;10466507;28;20238;-71
2022/05/31 22:46:07;;;;;;;2.70;2.23;;;15.40;86.10;;;;;;10467405;28;20238;-71
2022/05/31 22:51:08;;;;;;;2.83;2.10;;;15.40;86.90;;;;;;10473961;28;20223;-71
2022/05/31 22:56:08;;;;;;;3.70;2.30;;;15.40;87.40;;;;;;10457269;28;20310;-71
2022/05/31 23:01:12;;;;;;;4.67;2.13;;;15.40;88.30;;;;;;10453351;28;20249;-71
2022/05/31 23:06:18;;;;;;;2.70;2.13;;;15.40;89.60;;;;;;10454266;28;20331;-72
2022/05/31 23:11:18;;;;;;;2.90;2.30;;;15.30;90.10;;;;;;10462887;28;20618;-69
2022/05/31 23:16:20;;;;;;;4.47;2.67;;;15.20;90.70;;;;;;10466427;28;20235;-71
2022/05/31 23:21:24;;;;;;;3.67;2.60;;;15.10;91.50;;;;;;10466826;28;20231;-71
2022/05/31 23:26:30;;;;;;;3.83;3.23;;;15.10;92.50;;;;;;10455991;28;20222;-70
2022/05/31 23:31:33;;;;;;;2.70;2.37;;;15.00;93.10;;;;;;10451703;28;20610;-70
2022/05/31 23:36:34;;;;;;;3.33;2.80;;;15.10;93.60;;;;;;10472864;28;20967;-72
2022/05/31 23:41:35;;;;;;;3.20;2.80;;;15.20;93.60;;;;;;10467424;28;20234;-72
2022/05/31 23:46:39;;;;;;;4.00;3.30;;;15.20;93.90;;;;;;10477462;28;20234;-71
2022/05/31 23:51:40;;;;;;;4.60;3.10;;;15.20;94.30;;;;;;10474705;28;20317;-71
2022/05/31 23:56:42;;;;;;;4.03;2.60;;;15.20;94.10;;;;;;10470919;28;20697;-71
